Wichelen, Belgium
Current Conditions -  °F | °C
As of 12:20 AM on Friday 28 Nov 2014 (Local Time) from EBAW Reporting Station
Broken Clouds Broken Clouds  
Wind Chill:   Ceiling: 3000
Heat Index:   Visibility: 4mi
Dew Point:   Wind: 8mph
Humidity: 87%   Direction: 110°ESE
Pressure: 29.68"   Gusts: NA
Location:  51.01°N, 3.98°E
Report Text: EBAW 272320Z AUTO 11007KT 6000 SCT026/// BKN030/// BKN049/// 09/07 Q1005
Loading
Personal Weather Stations






























Interactive Weather Map New forecast layout! Learn more

10-Day Weather Forecast

Advertisements
Track Severe Weather on mobile